METAR Data
IDs: Format: Raw Decoded Include TAF

Data at: 0409 UTC 26 May 2022

EKRK 260350Z AUTO 24010KT 9999 SCT012/// BKN084/// 12/11 Q1007